Terminal Aerodrome Forecast
Issued by NWS

Home | Current Version | Previous Version | Text Only | Print | Product List | Glossary On
Versions: 1 2 3 4 5 6 7 8 9 10 11 12
000
FTUS43 KDMX 211122
TAFOTM
TAF
KOTM 211122Z 2112/2212 32012G18KT P6SM OVC180
     FM211400 33015G24KT P6SM BKN110
     FM211600 34022G31KT P6SM SCT100
     FM220000 33013G21KT P6SM SKC
     FM220300 33009KT P6SM SKC
     FM221000 31005KT P6SM SKC=

USA.gov is the U.S. government's official web portal to all federal, state and local government web resources and services.